createdAt,value
2022-11-28T00:01:30.105Z,100.00
2022-11-28T00:03:58.372Z,100.00
2022-11-28T00:06:28.248Z,100.00
2022-11-28T00:08:56.592Z,100.00
2022-11-28T00:11:24.503Z,100.00
2022-11-28T00:13:53.669Z,100.00
2022-11-28T00:16:22.500Z,100.00
2022-11-28T00:18:51.510Z,100.00
2022-11-28T00:21:19.216Z,100.00
2022-11-28T00:23:49.024Z,100.00
2022-11-28T00:26:17.930Z,100.00
2022-11-28T00:28:45.654Z,100.00
2022-11-28T00:31:14.517Z,100.00
2022-11-28T00:33:43.817Z,100.00
2022-11-28T00:36:12.065Z,100.00
2022-11-28T00:38:41.058Z,100.00
2022-11-28T00:41:11.546Z,100.00
2022-11-28T00:43:39.600Z,100.00
2022-11-28T00:46:07.583Z,100.00
2022-11-28T00:48:35.865Z,100.00
2022-11-28T00:51:07.356Z,100.00
2022-11-28T00:53:35.525Z,100.00
2022-11-28T00:56:04.955Z,100.00
2022-11-28T00:58:34.574Z,100.00
2022-11-28T01:01:08.326Z,100.00
2022-11-28T01:03:36.615Z,100.00
2022-11-28T01:06:04.721Z,100.00
2022-11-28T01:08:32.657Z,100.00
2022-11-28T01:11:00.927Z,100.00
2022-11-28T01:13:29.487Z,100.00
2022-11-28T01:15:59.604Z,100.00
2022-11-28T01:18:27.472Z,100.00
2022-11-28T01:20:55.390Z,100.00
2022-11-28T01:23:23.370Z,100.00
2022-11-28T01:25:51.094Z,100.00
2022-11-28T01:28:19.166Z,100.00
2022-11-28T01:30:47.021Z,100.00
2022-11-28T01:33:16.393Z,100.00
2022-11-28T01:35:44.412Z,100.00
2022-11-28T01:38:12.281Z,100.00
2022-11-28T01:40:46.533Z,100.00
2022-11-28T01:43:14.399Z,100.00
2022-11-28T01:45:42.336Z,100.00
2022-11-28T01:48:12.055Z,100.00
2022-11-28T01:50:41.890Z,100.00
2022-11-28T01:53:11.504Z,100.00
2022-11-28T01:55:43.472Z,100.00
2022-11-28T01:58:12.700Z,100.00
2022-11-28T02:00:40.536Z,100.00
2022-11-28T02:03:12.057Z,100.00
2022-11-28T02:05:41.444Z,100.00
2022-11-28T02:08:09.879Z,100.00
2022-11-28T02:10:45.254Z,100.00
2022-11-28T02:13:17.805Z,100.00
2022-11-28T02:15:52.452Z,100.00
2022-11-28T02:18:32.315Z,100.00
2022-11-28T02:21:17.172Z,100.00
2022-11-28T02:24:02.934Z,100.00
2022-11-28T02:26:51.734Z,100.00
2022-11-28T02:29:29.040Z,100.00
2022-11-28T02:32:17.909Z,100.00
2022-11-28T02:34:52.113Z,100.00
2022-11-28T02:37:24.796Z,100.00
2022-11-28T02:39:56.837Z,100.00
2022-11-28T02:42:29.778Z,100.00
2022-11-28T02:45:00.978Z,100.00
2022-11-28T02:47:33.422Z,100.00
2022-11-28T02:50:06.609Z,100.00
2022-11-28T02:52:35.893Z,100.00
2022-11-28T02:55:04.261Z,100.00
2022-11-28T02:57:35.798Z,100.00
2022-11-28T03:00:04.931Z,100.00
2022-11-28T03:02:34.333Z,100.00
2022-11-28T03:05:07.077Z,100.00
2022-11-28T03:07:41.285Z,100.00
2022-11-28T03:10:20.153Z,100.00
2022-11-28T03:12:52.979Z,100.00
2022-11-28T03:15:22.980Z,100.00
2022-11-28T03:18:00.849Z,100.00
2022-11-28T03:20:32.569Z,100.00
2022-11-28T03:23:04.060Z,100.00
2022-11-28T03:25:37.375Z,100.00
2022-11-28T03:28:08.440Z,100.00
2022-11-28T03:30:40.366Z,100.00
2022-11-28T03:33:09.854Z,100.00
2022-11-28T03:35:39.860Z,100.00
2022-11-28T03:38:11.235Z,100.00
2022-11-28T03:40:42.725Z,100.00
2022-11-28T03:43:12.555Z,100.00
2022-11-28T03:45:42.586Z,100.00
2022-11-28T03:48:14.839Z,100.00
2022-11-28T03:50:44.030Z,100.00
2022-11-28T03:53:14.760Z,100.00
2022-11-28T03:55:46.285Z,100.00
2022-11-28T03:58:17.606Z,100.00
2022-11-28T04:00:51.025Z,100.00
2022-11-28T04:03:23.490Z,100.00
2022-11-28T04:05:55.000Z,100.00
2022-11-28T04:08:25.529Z,100.00
2022-11-28T04:10:57.697Z,100.00
2022-11-28T04:13:28.095Z,100.00
2022-11-28T04:15:58.621Z,100.00
2022-11-28T04:18:29.103Z,100.00
2022-11-28T04:20:59.734Z,100.00
2022-11-28T04:23:28.393Z,100.00
2022-11-28T04:25:58.410Z,100.00
2022-11-28T04:28:28.337Z,100.00
2022-11-28T04:30:57.691Z,100.00
2022-11-28T04:33:29.224Z,100.00
2022-11-28T04:35:57.928Z,100.00
2022-11-28T04:38:30.511Z,100.00
2022-11-28T04:41:04.015Z,100.00
2022-11-28T04:43:35.190Z,100.00
2022-11-28T04:46:07.021Z,100.00
2022-11-28T04:48:36.353Z,100.00
2022-11-28T04:51:11.795Z,100.00
2022-11-28T04:53:44.692Z,100.00
2022-11-28T04:56:15.111Z,100.00
2022-11-28T04:58:44.608Z,100.00
2022-11-28T05:01:15.572Z,100.00
2022-11-28T05:03:45.163Z,100.00
2022-11-28T05:06:23.435Z,100.00
2022-11-28T05:08:51.470Z,100.00
2022-11-28T05:11:19.478Z,100.00
2022-11-28T05:13:47.275Z,100.00
2022-11-28T05:16:16.482Z,100.00
2022-11-28T05:18:45.896Z,100.00
2022-11-28T05:21:14.463Z,100.00
2022-11-28T05:23:43.750Z,100.00
2022-11-28T05:26:14.655Z,100.00
2022-11-28T05:28:44.495Z,100.00
2022-11-28T05:31:13.052Z,100.00
2022-11-28T05:33:41.812Z,100.00
2022-11-28T05:36:13.660Z,100.00
2022-11-28T05:38:42.363Z,100.00
2022-11-28T05:41:10.901Z,100.00
2022-11-28T05:43:38.806Z,100.00
2022-11-28T05:46:07.240Z,100.00
2022-11-28T05:48:34.991Z,100.00
2022-11-28T05:51:05.122Z,100.00
2022-11-28T05:53:34.525Z,100.00
2022-11-28T05:56:07.733Z,100.00
2022-11-28T05:58:36.299Z,100.00
2022-11-28T06:01:11.128Z,100.00
2022-11-28T06:03:39.089Z,100.00
2022-11-28T06:06:10.263Z,100.00
2022-11-28T06:08:40.546Z,100.00
2022-11-28T06:11:09.049Z,100.00
2022-11-28T06:13:37.536Z,100.00
2022-11-28T06:16:08.463Z,100.00
2022-11-28T06:18:36.426Z,100.00
2022-11-28T06:21:04.655Z,100.00
2022-11-28T06:23:33.828Z,100.00
2022-11-28T06:26:07.746Z,100.00
2022-11-28T06:28:37.866Z,100.00
2022-11-28T06:31:06.712Z,100.00
2022-11-28T06:33:34.720Z,100.00
2022-11-28T06:36:05.231Z,100.00
2022-11-28T06:38:33.450Z,100.00
2022-11-28T06:41:02.654Z,100.00
2022-11-28T06:43:32.450Z,100.00
2022-11-28T06:46:00.479Z,100.00
2022-11-28T06:48:31.072Z,100.00
2022-11-28T06:51:03.275Z,100.00
2022-11-28T06:53:31.837Z,100.00
2022-11-28T06:56:00.095Z,100.00
2022-11-28T06:58:28.165Z,100.00
2022-11-28T07:00:57.434Z,100.00
2022-11-28T07:03:25.293Z,100.00
2022-11-28T07:05:53.630Z,100.00
2022-11-28T07:08:21.551Z,100.00
2022-11-28T07:10:49.524Z,100.00
2022-11-28T07:13:17.550Z,100.00
2022-11-28T07:15:49.695Z,100.00
2022-11-28T07:18:19.256Z,100.00
2022-11-28T07:20:47.133Z,100.00
2022-11-28T07:23:14.925Z,100.00
2022-11-28T07:25:42.757Z,100.00
2022-11-28T07:28:10.469Z,100.00
2022-11-28T07:30:38.535Z,100.00
2022-11-28T07:33:08.102Z,100.00
2022-11-28T07:35:38.088Z,100.00
2022-11-28T07:38:06.884Z,100.00
2022-11-28T07:40:34.981Z,100.00
2022-11-28T07:43:02.952Z,100.00
2022-11-28T07:45:47.464Z,100.00
2022-11-28T07:48:18.876Z,100.00
2022-11-28T07:50:48.160Z,100.00
2022-11-28T07:53:16.391Z,100.00
2022-11-28T07:55:44.460Z,100.00
2022-11-28T07:58:12.388Z,100.00
2022-11-28T08:00:40.849Z,100.00
2022-11-28T08:03:08.725Z,100.00
2022-11-28T08:05:36.789Z,100.00
2022-11-28T08:08:06.427Z,100.00
2022-11-28T08:10:37.015Z,100.00
2022-11-28T08:13:05.201Z,100.00
2022-11-28T08:15:33.007Z,100.00
2022-11-28T08:18:01.033Z,100.00
2022-11-28T08:20:29.405Z,100.00
2022-11-28T08:22:57.658Z,100.00
2022-11-28T08:25:27.519Z,100.00
2022-11-28T08:27:55.377Z,100.00
2022-11-28T08:30:23.308Z,100.00
2022-11-28T08:32:51.463Z,100.00
2022-11-28T08:35:19.583Z,100.00
2022-11-28T08:37:47.712Z,100.00
2022-11-28T08:40:16.036Z,100.00
2022-11-28T08:42:45.480Z,100.00
2022-11-28T08:45:13.716Z,98.11
2022-11-28T08:47:41.629Z,99.33
2022-11-28T08:50:10.364Z,98.41
2022-11-28T08:52:38.140Z,98.14
2022-11-28T08:55:06.517Z,97.04
2022-11-28T08:57:35.025Z,95.76
2022-11-28T09:00:06.400Z,95.90
2022-11-28T09:02:34.613Z,97.00
2022-11-28T09:05:02.500Z,100.00
2022-11-28T09:07:30.914Z,99.42
2022-11-28T09:09:59.493Z,99.80
2022-11-28T09:12:28.013Z,99.98
2022-11-28T09:14:55.991Z,97.04
2022-11-28T09:17:25.267Z,96.49
2022-11-28T09:19:55.465Z,95.14
2022-11-28T09:22:23.424Z,93.80
2022-11-28T09:24:51.486Z,91.75
2022-11-28T09:27:19.459Z,87.95
2022-11-28T09:29:49.696Z,85.70
2022-11-28T09:32:17.489Z,85.21
2022-11-28T09:34:46.758Z,82.94
2022-11-28T09:37:14.606Z,83.11
2022-11-28T09:40:04.882Z,80.19
2022-11-28T09:42:33.467Z,76.74
2022-11-28T09:45:03.577Z,76.18
2022-11-28T09:47:33.347Z,75.98
2022-11-28T09:50:04.133Z,78.57
2022-11-28T09:52:35.357Z,76.78
2022-11-28T09:55:06.347Z,78.77
2022-11-28T09:57:36.837Z,77.89
2022-11-28T10:00:05.289Z,75.56
2022-11-28T10:02:44.942Z,67.49
2022-11-28T10:05:17.275Z,71.11
2022-11-28T10:07:54.930Z,70.75
2022-11-28T10:10:27.696Z,71.88
2022-11-28T10:13:02.661Z,71.31
2022-11-28T10:15:39.797Z,74.04
2022-11-28T10:18:16.171Z,85.61
2022-11-28T10:20:46.858Z,87.12
2022-11-28T10:23:17.701Z,89.89
2022-11-28T10:25:50.586Z,85.61
2022-11-28T10:28:20.964Z,83.51
2022-11-28T10:30:53.341Z,81.80
2022-11-28T10:33:25.616Z,82.54
2022-11-28T10:35:56.567Z,81.49
2022-11-28T10:38:27.480Z,81.08
2022-11-28T10:40:59.357Z,82.99
2022-11-28T10:43:39.465Z,83.08
2022-11-28T10:46:20.494Z,81.12
2022-11-28T10:48:50.235Z,81.21
2022-11-28T10:51:30.941Z,81.60
2022-11-28T10:54:04.117Z,79.85
2022-11-28T10:56:37.839Z,80.08
2022-11-28T10:59:14.346Z,81.81
2022-11-28T11:01:45.916Z,82.58
2022-11-28T11:04:19.510Z,83.39
2022-11-28T11:07:08.277Z,81.51
2022-11-28T11:09:39.013Z,80.54
2022-11-28T11:12:08.872Z,78.02
2022-11-28T11:14:39.914Z,79.57
2022-11-28T11:17:08.677Z,79.10
2022-11-28T11:19:37.747Z,79.26
2022-11-28T11:22:15.860Z,77.93
2022-11-28T11:24:44.079Z,79.18
2022-11-28T11:27:19.278Z,79.53
2022-11-28T11:29:51.237Z,79.12
2022-11-28T11:32:22.496Z,79.72
2022-11-28T11:34:51.189Z,79.48
2022-11-28T11:37:21.995Z,80.06
2022-11-28T11:39:51.384Z,84.92
2022-11-28T11:42:23.881Z,90.12
2022-11-28T11:44:52.044Z,99.34
2022-11-28T11:47:20.500Z,100.00
2022-11-28T11:49:49.265Z,100.00
2022-11-28T11:52:22.378Z,100.00
2022-11-28T11:55:01.305Z,100.00
2022-11-28T11:57:34.128Z,100.00
2022-11-28T12:00:04.761Z,100.00
2022-11-28T12:02:42.664Z,100.00
2022-11-28T12:05:12.799Z,100.00
2022-11-28T12:07:43.203Z,100.00
2022-11-28T12:10:13.834Z,100.00
2022-11-28T12:12:42.295Z,100.00
2022-11-28T12:15:16.595Z,100.00
2022-11-28T12:17:53.389Z,100.00
2022-11-28T12:20:31.242Z,100.00
2022-11-28T12:23:05.802Z,100.00
2022-11-28T12:25:40.848Z,100.00
2022-11-28T12:28:15.866Z,100.00
2022-11-28T12:31:01.600Z,100.00
2022-11-28T12:33:39.204Z,100.00
2022-11-28T12:36:12.594Z,100.00
2022-11-28T12:38:56.962Z,100.00
2022-11-28T12:41:32.826Z,100.00
2022-11-28T12:44:07.551Z,100.00
2022-11-28T12:46:39.706Z,100.00
2022-11-28T12:49:15.291Z,100.00
2022-11-28T12:51:48.478Z,100.00
2022-11-28T12:54:24.904Z,100.00
2022-11-28T12:56:58.406Z,100.00
2022-11-28T12:59:30.940Z,100.00
2022-11-28T13:02:09.483Z,100.00
2022-11-28T13:04:55.043Z,100.00
2022-11-28T13:07:29.886Z,100.00
2022-11-28T13:10:02.721Z,100.00
2022-11-28T13:12:41.292Z,100.00
2022-11-28T13:15:14.842Z,100.00
2022-11-28T13:17:46.366Z,100.00
2022-11-28T13:20:19.492Z,100.00
2022-11-28T13:22:58.504Z,100.00
2022-11-28T13:25:29.824Z,100.00
2022-11-28T13:28:19.251Z,100.00
2022-11-28T13:30:49.986Z,100.00
2022-11-28T13:33:29.832Z,100.00
2022-11-28T13:35:59.322Z,100.00
2022-11-28T13:38:35.811Z,100.00
2022-11-28T13:41:18.092Z,100.00
2022-11-28T13:44:02.119Z,100.00
2022-11-28T13:46:30.159Z,100.00
2022-11-28T13:49:20.513Z,100.00
2022-11-28T13:51:49.580Z,100.00
2022-11-28T13:54:54.942Z,100.00
2022-11-28T13:57:25.097Z,100.00
2022-11-28T14:00:01.405Z,100.00
2022-11-28T14:02:35.440Z,100.00
2022-11-28T14:05:05.628Z,100.00
2022-11-28T14:07:34.706Z,100.00
2022-11-28T14:10:13.342Z,100.00
2022-11-28T14:12:46.650Z,100.00
2022-11-28T14:15:23.323Z,100.00
2022-11-28T14:17:56.223Z,100.00
2022-11-28T14:20:29.867Z,100.00
2022-11-28T14:23:04.643Z,100.00
2022-11-28T14:25:34.653Z,100.00
2022-11-28T14:28:05.019Z,100.00
2022-11-28T14:30:36.327Z,100.00
2022-11-28T14:33:06.059Z,100.00
2022-11-28T14:35:53.263Z,100.00
2022-11-28T14:38:41.732Z,100.00
2022-11-28T14:41:11.923Z,100.00
2022-11-28T14:43:40.641Z,100.00
2022-11-28T14:46:25.395Z,100.00
2022-11-28T14:49:14.360Z,100.00
2022-11-28T14:52:22.969Z,100.00
2022-11-28T14:54:51.315Z,100.00
2022-11-28T14:57:20.444Z,100.00
2022-11-28T14:59:50.267Z,100.00
2022-11-28T15:02:35.372Z,100.00
2022-11-28T15:05:09.634Z,100.00
2022-11-28T15:07:45.635Z,100.00
2022-11-28T15:10:21.580Z,100.00
2022-11-28T15:12:56.291Z,100.00
2022-11-28T15:15:24.313Z,100.00
2022-11-28T15:17:54.555Z,100.00
2022-11-28T15:20:27.952Z,100.00
2022-11-28T15:22:56.031Z,100.00
2022-11-28T15:25:29.262Z,100.00
2022-11-28T15:27:59.316Z,100.00
2022-11-28T15:30:27.451Z,100.00
2022-11-28T15:32:58.240Z,100.00
2022-11-28T15:35:27.973Z,100.00
2022-11-28T15:37:58.568Z,100.00
2022-11-28T15:40:30.184Z,100.00
2022-11-28T15:42:58.047Z,100.00
2022-11-28T15:45:27.375Z,100.00
2022-11-28T15:47:55.760Z,100.00
2022-11-28T15:50:25.274Z,100.00
2022-11-28T15:52:54.870Z,100.00
2022-11-28T15:55:23.259Z,100.00
2022-11-28T15:57:52.468Z,100.00
2022-11-28T16:00:24.337Z,100.00
2022-11-28T16:02:53.349Z,100.00
2022-11-28T16:05:22.246Z,100.00
2022-11-28T16:07:51.105Z,100.00
2022-11-28T16:10:22.998Z,100.00
2022-11-28T16:12:54.165Z,100.00
2022-11-28T16:15:24.257Z,100.00
2022-11-28T16:17:54.823Z,100.00
2022-11-28T16:20:24.687Z,100.00
2022-11-28T16:22:59.638Z,100.00
2022-11-28T16:25:28.706Z,100.00
2022-11-28T16:27:58.200Z,100.00
2022-11-28T16:30:27.513Z,100.00
2022-11-28T16:32:56.550Z,100.00
2022-11-28T16:35:28.846Z,100.00
2022-11-28T16:38:05.219Z,100.00
2022-11-28T16:40:33.682Z,100.00
2022-11-28T16:43:05.162Z,100.00
2022-11-28T16:45:34.318Z,100.00
2022-11-28T16:48:06.862Z,100.00
2022-11-28T16:50:35.003Z,100.00
2022-11-28T16:53:03.753Z,100.00
2022-11-28T16:55:47.161Z,100.00
2022-11-28T16:58:18.186Z,100.00
2022-11-28T17:00:50.438Z,100.00
2022-11-28T17:03:23.533Z,100.00
2022-11-28T17:05:51.858Z,100.00
2022-11-28T17:08:20.277Z,100.00
2022-11-28T17:10:48.435Z,100.00
2022-11-28T17:13:18.464Z,100.00
2022-11-28T17:25:24.684Z,100.00
2022-11-28T18:06:32.637Z,100.00
2022-11-28T18:09:02.528Z,100.00
2022-11-28T18:11:35.878Z,100.00
2022-11-28T18:14:04.649Z,100.00
2022-11-28T18:16:32.798Z,100.00
2022-11-28T18:19:00.811Z,100.00
2022-11-28T18:21:28.866Z,100.00
2022-11-28T18:23:58.183Z,100.00
2022-11-28T18:26:28.244Z,100.00
2022-11-28T18:28:56.265Z,100.00
2022-11-28T18:31:25.280Z,100.00
2022-11-28T18:33:57.395Z,100.00
2022-11-28T18:36:29.328Z,100.00
2022-11-28T18:38:59.811Z,100.00
2022-11-28T18:41:28.657Z,100.00
2022-11-28T18:43:57.169Z,100.00
2022-11-28T18:46:26.709Z,100.00
2022-11-28T18:48:54.728Z,100.00
2022-11-28T18:51:25.027Z,100.00
2022-11-28T18:53:53.411Z,100.00
2022-11-28T18:56:23.333Z,100.00
2022-11-28T18:58:52.426Z,100.00
2022-11-28T19:16:15.021Z,100.00
2022-11-28T21:20:14.544Z,100.00
2022-11-28T21:22:43.809Z,100.00
2022-11-28T21:33:38.421Z,100.00
2022-11-28T21:36:08.311Z,100.00
2022-11-28T21:38:38.608Z,100.00
2022-11-28T21:41:06.537Z,100.00
2022-11-28T21:43:34.082Z,100.00
2022-11-28T21:46:03.040Z,100.00
2022-11-28T21:48:31.157Z,100.00
2022-11-28T21:51:00.672Z,100.00
2022-11-28T21:53:29.701Z,100.00
2022-11-28T21:56:00.395Z,100.00
2022-11-28T21:58:28.979Z,100.00
2022-11-28T22:00:57.802Z,100.00
2022-11-28T22:03:25.687Z,100.00
2022-11-28T22:05:54.223Z,100.00
2022-11-28T22:08:22.243Z,100.00
2022-11-28T22:10:50.538Z,100.00
2022-11-28T22:13:20.400Z,100.00
2022-11-28T22:15:48.830Z,100.00
2022-11-28T22:18:16.763Z,100.00
2022-11-28T22:20:48.913Z,100.00
2022-11-28T22:23:20.356Z,100.00
2022-11-28T22:25:52.648Z,100.00
2022-11-28T22:28:23.206Z,100.00
2022-11-28T22:30:51.564Z,100.00
2022-11-28T22:33:21.078Z,100.00
2022-11-28T22:35:51.270Z,100.00
2022-11-28T22:38:19.278Z,100.00
2022-11-28T22:40:48.107Z,100.00
2022-11-28T22:43:16.099Z,100.00
2022-11-28T22:45:45.619Z,100.00
2022-11-28T22:48:14.106Z,100.00
2022-11-28T22:50:42.408Z,100.00
2022-11-28T22:53:10.401Z,100.00
2022-11-28T22:55:38.819Z,100.00
2022-11-28T22:58:07.288Z,100.00
2022-11-28T23:00:37.076Z,100.00
2022-11-28T23:03:07.566Z,100.00
2022-11-28T23:05:35.643Z,100.00
2022-11-28T23:08:03.900Z,100.00
2022-11-28T23:10:32.173Z,100.00
2022-11-28T23:13:00.217Z,100.00
2022-11-28T23:15:28.797Z,100.00
2022-11-28T23:17:56.825Z,100.00
2022-11-28T23:20:26.334Z,100.00
2022-11-28T23:22:54.468Z,100.00
2022-11-28T23:25:22.689Z,100.00
2022-11-28T23:27:51.002Z,100.00
2022-11-28T23:30:19.027Z,100.00
2022-11-28T23:32:47.092Z,100.00
2022-11-28T23:35:15.361Z,100.00
2022-11-28T23:37:44.767Z,100.00
2022-11-28T23:40:13.102Z,100.00
2022-11-28T23:42:41.877Z,100.00
2022-11-28T23:45:10.692Z,100.00
2022-11-28T23:47:38.645Z,100.00
2022-11-28T23:50:07.286Z,100.00
2022-11-28T23:52:35.531Z,100.00
2022-11-28T23:55:05.162Z,100.00
2022-11-28T23:57:33.111Z,100.00
